Time;durP1;ratioP1;P1;durP2;ratioP2;P2;SDS_P1;SDS_P2;PMS_P1;PMS_P2;Temp;Humidity;BMP_temperature;BMP_pressure;BME280_temperature;BME280_humidity;BME280_pressure;Samples;Min_cycle;Max_cycle;Signal;HPM_P1;HPM_P2
2022/07/20 04:01:17;;;;;;;4.00;2.50;;;;;;;19.80;61.57;100879.31;5362613;27;34523;-86
2022/07/20 04:04:20;;;;;;;2.95;2.37;;;;;;;19.84;61.61;100882.41;5399785;27;33557;-86
2022/07/20 04:07:23;;;;;;;3.50;2.40;;;;;;;19.86;61.26;100889.31;5359704;33;33412;-86
2022/07/20 04:10:26;;;;;;;4.00;2.33;;;;;;;19.93;60.27;100879.12;5359057;33;33781;-86
2022/07/20 04:13:29;;;;;;;4.22;2.50;;;;;;;19.98;59.13;100880.34;5358418;33;33751;-85
2022/07/20 04:16:32;;;;;;;5.37;2.20;;;;;;;20.02;57.38;100879.66;5358634;33;33483;-85
2022/07/20 04:19:36;;;;;;;2.42;2.22;;;;;;;20.08;57.19;100878.75;5347755;33;33548;-86
2022/07/20 04:22:39;;;;;;;2.28;2.08;;;;;;;20.20;57.11;100884.28;5360711;33;33379;-86
2022/07/20 04:25:42;;;;;;;2.67;2.20;;;;;;;20.27;57.34;100882.31;5347564;33;31648;-85
2022/07/20 04:28:45;;;;;;;3.78;2.22;;;;;;;20.34;57.60;100882.25;5361567;33;33530;-85
2022/07/20 04:31:49;;;;;;;3.92;2.30;;;;;;;20.42;56.85;100884.66;5361315;33;33112;-86
2022/07/20 04:34:52;;;;;;;3.62;2.10;;;;;;;20.59;56.11;100884.87;5348354;33;32407;-85
2022/07/20 04:37:55;;;;;;;3.08;1.75;;;;;;;20.70;55.48;100883.25;5361266;33;33519;-86
2022/07/20 04:40:58;;;;;;;5.07;2.10;;;;;;;20.81;55.56;100886.03;5361353;33;33531;-85
2022/07/20 04:44:01;;;;;;;3.75;2.28;;;;;;;20.91;54.95;100890.91;5361180;33;33370;-85
2022/07/20 04:47:04;;;;;;;3.40;2.30;;;;;;;21.15;54.72;100882.75;5361122;33;34142;-85
2022/07/20 04:50:08;;;;;;;3.03;2.62;;;;;;;21.38;53.97;100882.84;5348231;33;33150;-86
2022/07/20 04:53:10;;;;;;;3.97;2.17;;;;;;;21.57;53.47;100888.22;5353974;33;31949;-85
2022/07/20 04:56:14;;;;;;;2.00;1.80;;;;;;;21.61;52.70;100892.97;5362147;33;33511;-86
2022/07/20 04:59:17;;;;;;;3.45;1.92;;;;;;;21.71;52.63;100895.13;5361317;33;33951;-86
2022/07/20 05:02:19;;;;;;;9.07;2.60;;;;;;;21.66;51.31;100898.56;5343087;33;34120;-87
2022/07/20 05:05:22;;;;;;;2.00;1.73;;;;;;;21.72;51.09;100888.56;5345787;33;33458;-87
2022/07/20 05:08:25;;;;;;;5.20;2.28;;;;;;;21.79;50.30;100894.75;5350572;33;33621;-86
2022/07/20 05:11:29;;;;;;;13.32;2.17;;;;;;;21.85;49.99;100895.69;5345216;33;33249;-87
2022/07/20 05:14:32;;;;;;;1.83;1.58;;;;;;;21.90;49.63;100895.81;5344786;33;34245;-87
2022/07/20 05:17:35;;;;;;;4.90;1.95;;;;;;;21.91;48.95;100900.25;5344995;33;34227;-87
2022/07/20 05:20:38;;;;;;;3.08;2.05;;;;;;;22.04;48.74;100901.87;5344880;33;33939;-87
2022/07/20 05:23:41;;;;;;;2.97;1.85;;;;;;;22.13;48.44;100901.25;5332231;33;32108;-87
2022/07/20 05:26:44;;;;;;;3.85;2.20;;;;;;;22.26;47.76;100899.34;5331305;33;35266;-87
2022/07/20 05:29:48;;;;;;;6.47;2.05;;;;;;;22.36;47.52;100894.06;5345090;33;33395;-87
2022/07/20 05:32:50;;;;;;;6.12;1.85;;;;;;;22.43;46.71;100894.75;5334467;33;31758;-87
2022/07/20 05:35:53;;;;;;;2.45;1.80;;;;;;;22.61;46.56;100893.72;5336922;33;32878;-87
2022/07/20 05:38:56;;;;;;;2.80;1.98;;;;;;;22.77;45.76;100895.69;5347193;33;33913;-87
2022/07/20 05:42:00;;;;;;;2.42;1.92;;;;;;;22.98;45.82;100896.09;5346536;33;33630;-87
2022/07/20 05:45:03;;;;;;;3.17;1.87;;;;;;;23.05;45.05;100899.53;5345169;33;33265;-87
2022/07/20 05:48:10;;;;;;;2.33;1.67;;;;;;;23.10;44.55;100905.09;5344342;33;34486;-87
2022/07/20 05:51:13;;;;;;;4.50;1.70;;;;;;;23.26;44.19;100901.53;5344508;33;33410;-86
2022/07/20 05:54:34;;;;;;;3.65;2.10;;;;;;;23.30;43.81;100899.13;5330393;33;31795;-87
2022/07/20 05:57:37;;;;;;;3.03;1.55;;;;;;;23.45;43.14;100901.28;5343334;33;33028;-87
2022/07/20 06:00:41;;;;;;;3.05;1.87;;;;;;;23.64;42.21;100901.87;5343865;33;33550;-87
2022/07/20 06:03:44;;;;;;;4.20;1.83;;;;;;;23.68;41.28;100908.50;5343698;33;33468;-87
2022/07/20 06:06:50;;;;;;;4.35;1.80;;;;;;;23.87;40.80;100900.84;5344869;33;34184;-86
2022/07/20 06:09:53;;;;;;;2.60;1.73;;;;;;;24.00;40.49;100897.72;5343208;33;34228;-87
2022/07/20 06:12:57;;;;;;;3.60;1.70;;;;;;;24.30;40.48;100902.78;5343648;33;33636;-86
2022/07/20 06:16:00;;;;;;;2.05;1.83;;;;;;;24.39;39.33;100904.00;5330017;33;32363;-86
2022/07/20 06:19:03;;;;;;;4.68;1.98;;;;;;;24.55;39.40;100905.06;5340069;33;31800;-86
2022/07/20 06:22:06;;;;;;;5.93;2.10;;;;;;;24.72;38.95;100912.41;5329907;33;32048;-86
2022/07/20 06:25:11;;;;;;;2.10;1.80;;;;;;;24.87;38.54;100910.63;5342937;33;33854;-86
2022/07/20 06:28:15;;;;;;;4.45;1.95;;;;;;;24.99;38.22;100909.62;5343205;33;34118;-86
2022/07/20 06:31:17;;;;;;;2.42;1.80;;;;;;;25.23;37.95;100910.16;5345088;33;33190;-86
2022/07/20 06:34:20;;;;;;;6.35;1.90;;;;;;;25.37;37.45;100916.91;5341688;33;33631;-86
2022/07/20 06:37:23;;;;;;;4.55;2.28;;;;;;;25.60;37.76;100907.41;5342214;33;34126;-86
2022/07/20 06:40:26;;;;;;;8.07;1.85;;;;;;;25.61;37.32;100905.50;5347799;33;33795;-86
2022/07/20 06:43:29;;;;;;;2.05;1.65;;;;;;;25.68;37.53;100903.31;5348713;33;32963;-87
2022/07/20 06:46:32;;;;;;;11.63;2.40;;;;;;;25.90;37.17;100894.94;5343206;33;33690;-87
2022/07/20 06:49:35;;;;;;;5.97;2.20;;;;;;;26.16;37.32;100896.72;5330439;33;32631;-87
2022/07/20 06:52:38;;;;;;;3.65;2.20;;;;;;;26.42;36.63;100903.19;5343762;33;33514;-86
2022/07/20 06:55:41;;;;;;;4.28;1.90;;;;;;;26.61;36.15;100891.66;5347214;33;33511;-86
2022/07/20 06:58:44;;;;;;;6.25;2.00;;;;;;;26.71;35.09;100893.66;5344175;33;33506;-87
2022/07/20 07:01:47;;;;;;;7.62;2.08;;;;;;;27.01;35.13;100895.63;5342248;33;33986;-87
2022/07/20 07:04:51;;;;;;;5.18;1.80;;;;;;;27.24;34.83;100883.22;5336791;33;33196;-87
2022/07/20 07:07:53;;;;;;;4.57;1.92;;;;;;;27.30;33.90;100884.87;5344709;33;34111;-87
2022/07/20 07:10:56;;;;;;;1.73;1.60;;;;;;;27.41;33.70;100886.53;5347331;33;34385;-87
2022/07/20 07:13:59;;;;;;;5.87;1.40;;;;;;;27.54;33.61;100879.59;5343936;33;33933;-87
2022/07/20 07:17:02;;;;;;;1.83;1.70;;;;;;;27.68;33.08;100885.38;5343283;33;33541;-87
2022/07/20 07:20:07;;;;;;;4.00;1.60;;;;;;;27.87;32.88;100883.69;5343418;33;33215;-87
2022/07/20 07:27:40;;;;;;;8.07;2.50;;;;;;;28.29;33.03;100874.13;5360144;27;33537;-87
2022/07/20 07:30:44;;;;;;;3.97;1.67;;;;;;;28.53;32.52;100884.56;5361266;33;33429;-87
2022/07/20 07:33:46;;;;;;;3.70;1.73;;;;;;;28.72;31.87;100885.53;5359196;33;33991;-87
2022/07/20 07:36:49;;;;;;;3.75;1.65;;;;;;;28.91;30.74;100877.37;5363330;33;32860;-87
2022/07/20 07:39:52;;;;;;;4.28;1.80;;;;;;;29.01;30.72;100882.84;5349268;33;33166;-87
2022/07/20 07:42:55;;;;;;;3.17;1.58;;;;;;;29.23;31.41;100879.66;5362273;33;33300;-87
2022/07/20 07:45:58;;;;;;;4.37;1.80;;;;;;;29.39;29.56;100874.78;5361382;33;33346;-87
2022/07/20 07:49:02;;;;;;;2.35;1.30;;;;;;;29.52;29.60;100873.28;5362699;33;33442;-87
2022/07/20 07:52:05;;;;;;;2.60;1.50;;;;;;;29.53;29.92;100863.84;5351011;33;32142;-86
2022/07/20 07:55:08;;;;;;;1.80;1.30;;;;;;;29.75;29.26;100866.97;5364555;33;33927;-87
2022/07/20 07:58:12;;;;;;;3.12;1.48;;;;;;;29.87;28.89;100869.34;5363539;33;34819;-85
2022/07/20 08:01:15;;;;;;;1.75;1.65;;;;;;;29.94;27.99;100863.41;5349975;33;32561;-85
2022/07/20 08:04:18;;;;;;;4.32;1.20;;;;;;;29.87;27.34;100863.78;5366887;33;34441;-85
2022/07/20 08:07:21;;;;;;;2.10;1.23;;;;;;;29.90;27.74;100857.63;5352666;33;32033;-86
2022/07/20 08:10:24;;;;;;;2.25;1.33;;;;;;;30.10;28.10;100861.25;5364724;33;33642;-86
2022/07/20 08:13:35;;;;;;;2.30;1.35;;;;;;;30.41;27.09;100857.00;5351205;33;31841;-85
2022/07/20 08:16:38;;;;;;;4.60;1.90;;;;;;;30.52;27.04;100863.25;5362901;33;33303;-85
2022/07/20 08:19:41;;;;;;;1.90;1.58;;;;;;;30.64;27.14;100857.22;5351474;33;32267;-86
2022/07/20 08:22:44;;;;;;;1.83;1.30;;;;;;;30.87;26.87;100852.75;5367349;33;34211;-85
2022/07/20 08:25:47;;;;;;;18.17;1.83;;;;;;;30.89;26.35;100851.31;5357575;33;33566;-86
2022/07/20 08:28:50;;;;;;;2.10;1.30;;;;;;;31.12;26.03;100851.47;5347221;33;33305;-86
2022/07/20 08:31:52;;;;;;;2.72;1.17;;;;;;;31.22;25.36;100851.31;5350344;33;33868;-86
2022/07/20 08:34:56;;;;;;;2.10;1.17;;;;;;;31.33;25.26;100852.78;5350005;33;33898;-86
2022/07/20 08:38:01;;;;;;;1.42;1.25;;;;;;;31.32;25.68;100851.13;5325113;33;33464;-86
2022/07/20 08:41:08;;;;;;;5.32;1.12;;;;;;;31.46;25.32;100851.19;5348384;33;32680;-86
2022/07/20 08:44:13;;;;;;;1.48;1.33;;;;;;;31.54;25.71;100844.91;5342992;33;33386;-86
2022/07/20 08:47:17;;;;;;;2.47;1.55;;;;;;;31.63;26.09;100836.66;5343744;33;34151;-85
2022/07/20 08:50:28;;;;;;;1.67;1.30;;;;;;;31.55;25.50;100843.78;5348781;33;34917;-89
2022/07/20 08:53:32;;;;;;;3.47;1.60;;;;;;;31.61;24.99;100847.28;5336154;33;31973;-90
2022/07/20 08:56:42;;;;;;;1.83;1.50;;;;;;;31.69;25.00;100837.41;5302943;33;32287;-86
2022/07/20 08:59:46;;;;;;;1.15;1.05;;;;;;;31.69;24.10;100829.87;5314181;33;32428;-86
2022/07/20 09:03:01;;;;;;;3.85;1.25;;;;;;;31.98;24.25;100831.53;5328331;33;33476;-87
2022/07/20 09:06:06;;;;;;;3.05;1.45;;;;;;;32.34;24.22;100831.56;5317976;33;34991;-86
2022/07/20 09:09:11;;;;;;;1.75;1.37;;;;;;;32.50;23.32;100834.88;5328598;33;33699;-86
2022/07/20 09:12:18;;;;;;;3.08;1.30;;;;;;;32.56;23.98;100824.41;5313185;33;33118;-87
2022/07/20 09:15:38;;;;;;;2.60;1.52;;;;;;;32.77;24.12;100824.78;5328969;33;33662;-86
2022/07/20 09:18:42;;;;;;;1.52;1.30;;;;;;;32.89;23.34;100822.22;5345966;33;33527;-86
2022/07/20 09:21:44;;;;;;;2.05;1.27;;;;;;;33.00;23.56;100825.62;5339549;33;31455;-86
2022/07/20 09:24:48;;;;;;;2.40;1.58;;;;;;;33.17;23.03;100818.19;5343928;33;33767;-86
2022/07/20 10:25:33;;;;;;;1.55;1.20;;;;;;;35.09;21.23;100762.66;5367609;27;34919;-86
2022/07/20 10:28:37;;;;;;;1.50;1.40;;;;;;;35.49;19.81;100762.34;5348260;33;31984;-86
2022/07/20 10:31:55;;;;;;;10.10;7.25;;;;;;;35.02;20.29;100768.75;5349377;33;32565;-86
2022/07/20 10:35:22;;;;;;;16.10;8.10;;;;;;;35.00;20.36;100762.63;5359464;33;33503;-86
2022/07/20 10:38:27;;;;;;;5.30;2.20;;;;;;;35.67;20.32;100746.28;5358958;33;33185;-86
2022/07/20 10:41:33;;;;;;;4.03;2.10;;;;;;;36.30;19.93;100745.19;5346920;33;32392;-86
2022/07/20 10:44:38;;;;;;;1.48;1.25;;;;;;;36.72;19.74;100744.34;5354703;33;34184;-88
2022/07/20 10:47:42;;;;;;;2.67;1.52;;;;;;;37.08;18.00;100743.62;5347953;33;32134;-90
2022/07/20 10:50:53;;;;;;;2.95;1.50;;;;;;;37.07;18.35;100733.56;5362734;33;34610;-91
2022/07/20 10:53:56;;;;;;;1.27;1.17;;;;;;;37.26;18.13;100735.78;5347049;33;32745;-87
2022/07/20 10:57:00;;;;;;;5.68;3.72;;;;;;;37.32;17.86;100730.75;5345900;33;33282;-87
2022/07/20 11:00:11;;;;;;;3.97;2.00;;;;;;;37.30;17.91;100733.13;5346338;33;33562;-86
2022/07/20 11:03:18;;;;;;;1.60;1.45;;;;;;;37.71;17.44;100731.25;5342921;33;32483;-87
2022/07/20 11:06:23;;;;;;;1.30;1.20;;;;;;;37.84;17.42;100724.44;5360719;33;32961;-87
2022/07/20 11:09:31;;;;;;;1.77;1.35;;;;;;;37.99;17.19;100723.72;5363802;33;33367;-87
2022/07/20 11:12:34;;;;;;;29.30;3.25;;;;;;;38.23;16.70;100722.00;5365080;33;34430;-86
2022/07/20 11:15:48;;;;;;;28.92;3.75;;;;;;;38.82;16.49;100707.22;5349366;33;31852;-87
2022/07/20 11:18:52;;;;;;;6.47;1.73;;;;;;;39.15;16.29;100706.88;5347297;33;32275;-86
2022/07/20 11:21:56;;;;;;;16.95;2.90;;;;;;;39.73;15.43;100697.81;5360951;33;33161;-87
2022/07/20 11:24:58;;;;;;;5.72;1.65;;;;;;;40.29;15.06;100696.62;5365619;33;33213;-87
2022/07/20 11:28:02;;;;;;;3.87;1.23;;;;;;;40.43;14.97;100696.09;5345608;33;33606;-86
2022/07/20 11:31:07;;;;;;;4.25;1.20;;;;;;;40.48;14.72;100696.59;5345984;33;33582;-87
2022/07/20 11:34:13;;;;;;;2.25;1.35;;;;;;;40.55;14.27;100695.94;5345316;33;33472;-86
2022/07/20 11:37:18;;;;;;;2.30;1.30;;;;;;;41.17;13.81;100693.03;5343635;33;32947;-85
2022/07/20 11:40:22;;;;;;;3.58;1.08;;;;;;;42.02;13.47;100689.88;5330403;33;32674;-85
2022/07/20 11:43:25;;;;;;;20.45;3.00;;;;;;;43.01;12.59;100689.34;5330762;33;32438;-85
2022/07/20 11:46:40;;;;;;;1.75;1.23;;;;;;;43.69;12.43;100684.19;5348801;33;33429;-85
2022/07/20 11:49:44;;;;;;;2.08;1.08;;;;;;;44.09;12.35;100688.06;5344728;33;34009;-85
2022/07/20 11:52:46;;;;;;;2.70;1.23;;;;;;;44.27;11.87;100673.91;5343464;33;33344;-85
2022/07/20 11:55:50;;;;;;;3.28;0.90;;;;;;;44.81;11.68;100681.34;5343178;33;34166;-85
2022/07/20 11:58:55;;;;;;;1.37;1.27;;;;;;;45.72;10.62;100670.69;5330601;33;33570;-85
2022/07/20 12:02:00;;;;;;;2.65;1.12;;;;;;;46.09;10.82;100668.13;5338641;33;33705;-85
2022/07/20 12:05:08;;;;;;;4.28;1.50;;;;;;;46.27;10.72;100670.06;5332270;33;31619;-85
2022/07/20 12:08:15;;;;;;;5.10;1.20;;;;;;;46.11;10.45;100659.19;5343355;33;33337;-85
2022/07/20 12:11:18;;;;;;;3.75;1.08;;;;;;;46.62;10.43;100651.94;5331200;33;32805;-88
2022/07/20 12:14:34;;;;;;;2.45;0.90;;;;;;;46.43;10.28;100653.31;5343162;33;34769;-89
2022/07/20 12:17:57;;;;;;;1.35;1.25;;;;;;;46.68;9.97;100647.44;5343315;33;33011;-85
2022/07/20 12:21:01;;;;;;;2.22;0.80;;;;;;;47.32;9.84;100650.94;5342951;33;33610;-85
2022/07/20 12:24:04;;;;;;;5.03;1.17;;;;;;;47.32;9.74;100650.94;5326261;33;32427;-85
2022/07/20 12:27:07;;;;;;;1.95;1.17;;;;;;;47.37;10.13;100650.50;5343766;33;33418;-85
2022/07/20 12:30:27;;;;;;;1.02;1.00;;;;;;;48.42;9.15;100639.38;5330511;33;32225;-85
2022/07/20 12:33:30;;;;;;;1.20;1.10;;;;;;;48.29;9.04;100630.59;5340762;33;34192;-85
2022/07/20 12:36:34;;;;;;;4.25;1.05;;;;;;;48.38;8.79;100630.84;5330217;33;31714;-85
2022/07/20 12:39:49;;;;;;;5.62;1.15;;;;;;;49.24;8.39;100624.53;5344220;33;33202;-85
2022/07/20 12:42:52;;;;;;;0.95;0.93;;;;;;;48.79;8.64;100633.47;5347888;33;34090;-85
2022/07/20 12:45:59;;;;;;;1.87;1.00;;;;;;;49.08;8.21;100632.16;5334846;33;31850;-85
2022/07/20 12:49:03;;;;;;;2.42;0.95;;;;;;;48.96;8.33;100622.19;5329155;33;33082;-85
2022/07/20 12:52:06;;;;;;;0.80;0.80;;;;;;;49.49;8.17;100624.00;5343384;33;34439;-85
2022/07/20 12:55:09;;;;;;;6.55;1.20;;;;;;;48.99;8.47;100624.16;5343718;33;33420;-85
2022/07/20 12:58:12;;;;;;;0.95;0.95;;;;;;;48.89;8.34;100625.19;5342938;33;34203;-84
2022/07/20 13:01:17;;;;;;;2.15;1.00;;;;;;;48.95;8.30;100617.72;5343185;33;33643;-85
2022/07/20 13:04:23;;;;;;;19.73;3.97;;;;;;;48.66;8.47;100615.31;5347202;33;33695;-85
2022/07/20 13:07:26;;;;;;;4.35;1.17;;;;;;;50.05;8.88;100608.94;5340256;33;111322;-85
2022/07/20 13:10:28;;;;;;;3.00;1.23;;;;;;;50.33;9.37;100601.75;5329412;33;32213;-85
2022/07/20 13:13:31;;;;;;;1.02;1.00;;;;;;;50.88;7.83;100602.00;5342326;33;34003;-85
2022/07/20 13:16:34;;;;;;;1.48;1.10;;;;;;;49.84;7.71;100592.22;5329663;33;32776;-85
2022/07/20 13:19:37;;;;;;;3.67;0.90;;;;;;;50.39;7.55;100593.44;5329835;33;31766;-85
2022/07/20 13:22:46;;;;;;;1.40;0.80;;;;;;;49.69;7.94;100586.81;5343202;33;33455;-85
2022/07/20 13:25:49;;;;;;;1.12;1.02;;;;;;;50.28;7.46;100598.59;5342967;33;34446;-85
2022/07/20 13:28:52;;;;;;;3.60;1.27;;;;;;;50.01;7.80;100585.31;5343811;33;33081;-85
2022/07/20 13:31:56;;;;;;;1.05;0.80;;;;;;;49.52;9.33;100590.03;5329171;33;32221;-85
2022/07/20 13:34:59;;;;;;;1.15;0.90;;;;;;;49.94;7.78;100585.50;5329503;33;31824;-88
2022/07/20 13:38:03;;;;;;;2.33;0.90;;;;;;;50.01;7.87;100590.25;5342813;33;33213;-88
2022/07/20 13:41:06;;;;;;;2.22;0.93;;;;;;;49.10;8.03;100584.72;5342447;33;33308;-89
2022/07/20 13:44:09;;;;;;;2.03;1.10;;;;;;;49.84;7.69;100575.03;5329566;33;31926;-89
2022/07/20 13:47:12;;;;;;;1.37;1.08;;;;;;;49.39;7.73;100578.47;5329535;33;32442;-85
2022/07/20 13:50:19;;;;;;;1.20;1.10;;;;;;;48.74;8.09;100570.28;5341819;33;33467;-85
2022/07/20 13:53:22;;;;;;;2.92;1.00;;;;;;;49.14;8.73;100564.62;5343041;33;34159;-85
2022/07/20 13:56:30;;;;;;;1.80;1.20;;;;;;;50.09;8.50;100563.84;5318013;33;32674;-85
2022/07/20 13:59:33;;;;;;;2.25;1.00;;;;;;;49.68;7.62;100568.03;5329676;33;33173;-85
2022/07/20 14:02:36;;;;;;;3.00;1.10;;;;;;;48.75;8.38;100561.25;5332291;33;31740;-85
2022/07/20 14:05:39;;;;;;;4.30;1.00;;;;;;;49.38;8.85;100562.53;5333971;33;33316;-85
2022/07/20 14:08:43;;;;;;;6.18;1.15;;;;;;;48.95;8.92;100549.09;5348606;33;33653;-85
2022/07/20 14:11:46;;;;;;;3.00;1.33;;;;;;;47.86;8.63;100548.41;5345612;33;33495;-85
2022/07/20 14:14:48;;;;;;;16.33;1.85;;;;;;;47.43;9.10;100554.69;5342069;33;33300;-85
2022/07/20 14:17:51;;;;;;;0.90;0.90;;;;;;;45.77;10.86;100551.59;5342478;33;33111;-85
2022/07/20 14:20:54;;;;;;;1.37;1.10;;;;;;;44.13;10.77;100539.25;5342870;33;33379;-84
2022/07/20 14:24:16;;;;;;;3.28;1.10;;;;;;;42.52;12.17;100541.22;5343191;33;33299;-85
2022/07/20 14:27:19;;;;;;;6.35;1.23;;;;;;;41.61;13.12;100548.34;5342588;33;33390;-84
2022/07/20 14:30:22;;;;;;;21.20;2.97;;;;;;;40.90;13.39;100551.75;5349590;33;33229;-85
2022/07/20 14:33:25;;;;;;;2.42;1.10;;;;;;;40.30;14.23;100552.34;5346582;33;33438;-84
2022/07/20 14:36:28;;;;;;;1.15;1.05;;;;;;;40.05;14.12;100543.41;5329563;33;32967;-84
2022/07/20 14:39:31;;;;;;;28.12;4.43;;;;;;;39.45;14.55;100535.34;5329128;33;31847;-84
2022/07/20 14:42:35;;;;;;;1.33;1.23;;;;;;;39.02;15.46;100539.19;5329091;33;32984;-84
2022/07/20 14:45:38;;;;;;;7.70;3.12;;;;;;;38.52;16.15;100538.78;5343395;33;33614;-84
2022/07/20 14:48:42;;;;;;;3.55;1.27;;;;;;;38.41;15.33;100532.09;5329164;33;31697;-84
2022/07/20 14:51:44;;;;;;;1.20;1.10;;;;;;;38.36;15.12;100525.88;5342497;33;34232;-85
2022/07/20 14:54:48;;;;;;;2.67;1.48;;;;;;;38.01;15.98;100526.59;5328691;33;32904;-84
2022/07/20 14:57:52;;;;;;;1.33;1.17;;;;;;;38.08;15.50;100526.75;5329016;33;32889;-84
2022/07/20 15:00:56;;;;;;;1.80;1.30;;;;;;;37.77;16.25;100511.44;5328517;33;32405;-84
2022/07/20 15:03:58;;;;;;;1.55;1.40;;;;;;;37.40;16.42;100513.56;5343047;33;34870;-84
2022/07/20 15:07:02;;;;;;;2.87;1.92;;;;;;;37.20;16.33;100516.19;5347855;33;33430;-84
2022/07/20 15:10:06;;;;;;;1.87;1.20;;;;;;;37.02;17.32;100508.41;5334440;33;33309;-84
2022/07/20 15:13:09;;;;;;;2.40;1.30;;;;;;;36.81;16.67;100514.13;5334255;33;32774;-85
2022/07/20 15:16:12;;;;;;;1.20;1.10;;;;;;;36.77;17.13;100505.63;5342196;33;34097;-84
2022/07/20 15:19:15;;;;;;;1.05;1.00;;;;;;;36.76;17.53;100503.97;5341754;33;33146;-84
2022/07/20 15:22:21;;;;;;;2.47;1.50;;;;;;;36.64;17.35;100504.78;5342708;33;33430;-85
2022/07/20 15:25:24;;;;;;;3.35;1.50;;;;;;;36.47;17.57;100505.81;5329282;33;32652;-85
2022/07/20 15:28:27;;;;;;;3.08;1.23;;;;;;;36.36;18.09;100498.19;5343105;33;33840;-85
2022/07/20 15:31:30;;;;;;;1.98;1.12;;;;;;;36.19;17.88;100502.88;5337873;33;33480;-85
2022/07/20 15:34:53;;;;;;;3.42;1.50;;;;;;;36.05;17.50;100502.38;5352899;33;32510;-85
2022/07/20 15:37:56;;;;;;;2.92;2.08;;;;;;;35.92;17.77;100500.66;5338997;33;32420;-85
2022/07/20 15:41:00;;;;;;;1.70;1.60;;;;;;;35.69;17.91;100489.88;5348869;33;33542;-85
2022/07/20 15:44:03;;;;;;;2.75;1.52;;;;;;;35.60;18.59;100489.97;5346415;33;33653;-85
2022/07/20 15:47:06;;;;;;;1.70;1.40;;;;;;;35.57;18.72;100489.81;5344367;33;33947;-85
2022/07/20 15:50:09;;;;;;;1.83;1.33;;;;;;;35.41;19.61;100489.59;5330750;33;33055;-85
2022/07/20 15:53:14;;;;;;;2.60;1.67;;;;;;;35.27;20.37;100489.88;5360535;27;34542;-85
